createdAt,value
2023-03-01T00:02:45.739Z,63.59
2023-03-01T00:05:48.478Z,63.46
2023-03-01T00:08:50.719Z,63.00
2023-03-01T00:11:53.228Z,63.47
2023-03-01T00:14:55.367Z,63.33
2023-03-01T00:17:58.217Z,64.33
2023-03-01T00:21:00.594Z,63.31
2023-03-01T00:24:03.476Z,63.78
2023-03-01T00:27:05.647Z,64.45
2023-03-01T00:30:09.177Z,64.40
2023-03-01T00:33:11.516Z,63.67
2023-03-01T00:36:16.027Z,63.12
2023-03-01T00:39:18.182Z,63.58
2023-03-01T00:42:21.163Z,63.84
2023-03-01T00:45:23.412Z,64.04
2023-03-01T00:48:25.894Z,63.50
2023-03-01T00:51:29.112Z,63.71
2023-03-01T00:54:32.572Z,63.63
2023-03-01T00:57:34.770Z,63.71
2023-03-01T01:00:37.500Z,63.90
2023-03-01T01:03:39.695Z,63.83
2023-03-01T01:06:45.480Z,64.67
2023-03-01T01:09:47.793Z,63.92
2023-03-01T01:12:50.408Z,63.40
2023-03-01T01:15:52.572Z,63.57
2023-03-01T01:18:56.645Z,64.14
2023-03-01T01:21:58.901Z,63.92
2023-03-01T01:25:01.408Z,64.13
2023-03-01T01:28:03.932Z,62.89
2023-03-01T01:31:07.142Z,63.59
2023-03-01T01:34:16.990Z,63.31
2023-03-01T01:37:19.403Z,63.69
2023-03-01T01:40:21.600Z,63.61
2023-03-01T01:43:35.897Z,62.99
2023-03-01T01:46:59.810Z,63.47
2023-03-01T01:50:02.844Z,63.37
2023-03-01T01:53:13.588Z,63.13
2023-03-01T01:56:18.848Z,63.66
2023-03-01T01:59:25.382Z,63.68
2023-03-01T02:02:28.215Z,63.76
2023-03-01T02:06:12.536Z,63.02
2023-03-01T02:09:17.439Z,63.36
2023-03-01T02:12:24.026Z,63.25
2023-03-01T02:15:27.550Z,63.33
2023-03-01T02:18:30.132Z,63.86
2023-03-01T02:22:07.262Z,64.48
2023-03-01T02:25:34.914Z,64.00
2023-03-01T02:28:40.832Z,64.97
2023-03-01T02:31:43.672Z,67.39
2023-03-01T02:34:47.451Z,68.21
2023-03-01T02:37:50.351Z,67.17
2023-03-01T02:40:54.813Z,68.01
2023-03-01T02:43:57.533Z,68.33
2023-03-01T02:47:03.900Z,68.36
2023-03-01T02:50:25.138Z,69.27
2023-03-01T02:54:03.391Z,69.75
2023-03-01T02:57:06.552Z,69.46
2023-03-01T03:00:12.125Z,69.67
2023-03-01T03:03:17.419Z,69.75
2023-03-01T03:06:20.652Z,70.01
2023-03-01T03:09:23.267Z,69.55
2023-03-01T03:12:25.472Z,69.66
2023-03-01T03:15:28.738Z,70.28
2023-03-01T03:18:31.038Z,70.01
2023-03-01T03:21:34.412Z,70.85
2023-03-01T03:24:39.062Z,69.93
2023-03-01T03:27:43.837Z,69.71
2023-03-01T03:30:47.708Z,71.17
2023-03-01T03:33:50.564Z,70.67
2023-03-01T03:36:57.715Z,70.85
2023-03-01T03:40:00.204Z,71.08
2023-03-01T03:43:04.212Z,70.77
2023-03-01T03:46:08.185Z,70.71
2023-03-01T03:49:10.245Z,70.39
2023-03-01T03:52:14.344Z,70.77
2023-03-01T03:55:20.225Z,70.47
2023-03-01T03:58:24.432Z,70.07
2023-03-01T04:01:26.583Z,70.34
2023-03-01T04:04:28.930Z,67.27
2023-03-01T04:07:31.111Z,67.60
2023-03-01T04:10:45.401Z,67.85
2023-03-01T04:13:47.641Z,67.62
2023-03-01T04:16:50.162Z,67.65
2023-03-01T04:19:52.743Z,67.87
2023-03-01T04:23:11.455Z,68.05
2023-03-01T04:26:13.802Z,67.68
2023-03-01T04:29:16.264Z,68.44
2023-03-01T04:32:19.550Z,68.03
2023-03-01T04:35:22.038Z,68.20
2023-03-01T04:38:24.270Z,68.83
2023-03-01T04:41:28.287Z,68.95
2023-03-01T04:44:30.373Z,68.85
2023-03-01T04:47:32.907Z,69.05
2023-03-01T04:50:36.002Z,69.18
2023-03-01T04:53:38.551Z,69.87
2023-03-01T04:56:40.724Z,69.42
2023-03-01T04:59:43.129Z,68.95
2023-03-01T05:02:45.270Z,69.61
2023-03-01T05:05:50.269Z,69.80
2023-03-01T05:08:52.439Z,69.64
2023-03-01T05:11:54.890Z,69.71
2023-03-01T05:14:57.054Z,69.27
2023-03-01T05:18:00.805Z,69.99
2023-03-01T05:21:09.012Z,69.63
2023-03-01T05:24:12.633Z,69.71
2023-03-01T05:27:15.670Z,69.90
2023-03-01T05:30:19.256Z,70.60
2023-03-01T05:33:22.920Z,70.03
2023-03-01T05:36:25.344Z,70.93
2023-03-01T05:39:29.089Z,69.36
2023-03-01T05:42:31.592Z,69.84
2023-03-01T05:45:34.287Z,71.12
2023-03-01T05:48:36.757Z,69.65
2023-03-01T05:51:38.951Z,69.17
2023-03-01T05:54:41.429Z,69.64
2023-03-01T05:57:43.696Z,68.54
2023-03-01T06:00:48.651Z,68.65
2023-03-01T06:03:51.630Z,68.14
2023-03-01T06:06:53.813Z,68.35
2023-03-01T06:09:56.341Z,69.26
2023-03-01T06:12:58.826Z,69.19
2023-03-01T06:16:01.401Z,67.82
2023-03-01T06:19:03.675Z,67.85
2023-03-01T06:22:06.402Z,67.99
2023-03-01T06:25:09.265Z,68.73
2023-03-01T06:28:11.871Z,67.89
2023-03-01T06:31:14.335Z,68.24
2023-03-01T06:34:17.052Z,67.59
2023-03-01T06:37:19.299Z,67.04
2023-03-01T06:40:22.343Z,67.67
2023-03-01T06:43:24.971Z,66.86
2023-03-01T06:46:28.991Z,67.55
2023-03-01T06:49:31.474Z,66.77
2023-03-01T06:52:33.966Z,66.73
2023-03-01T06:55:36.206Z,66.12
2023-03-01T06:58:38.846Z,66.26
2023-03-01T07:01:41.092Z,65.88
2023-03-01T07:04:43.772Z,65.22
2023-03-01T07:07:46.037Z,65.36
2023-03-01T07:10:48.918Z,65.25
2023-03-01T07:13:52.541Z,65.19
2023-03-01T07:16:56.768Z,64.81
2023-03-01T07:19:59.985Z,64.28
2023-03-01T07:23:02.805Z,63.42
2023-03-01T07:26:05.481Z,63.14
2023-03-01T07:29:10.529Z,63.06
2023-03-01T07:32:14.748Z,62.53
2023-03-01T07:35:17.641Z,62.24
2023-03-01T07:38:20.545Z,61.00
2023-03-01T07:41:25.760Z,60.98
2023-03-01T07:44:29.182Z,61.55
2023-03-01T07:47:31.888Z,60.96
2023-03-01T07:50:34.116Z,60.76
2023-03-01T07:53:36.677Z,60.48
2023-03-01T07:56:38.879Z,59.38
2023-03-01T07:59:41.457Z,59.25
2023-03-01T08:02:44.034Z,59.00
2023-03-01T08:05:46.568Z,59.04
2023-03-01T08:08:48.773Z,57.62
2023-03-01T08:11:51.596Z,57.90
2023-03-01T08:14:53.908Z,56.61
2023-03-01T08:17:56.312Z,55.93
2023-03-01T08:21:11.066Z,56.38
2023-03-01T08:24:13.599Z,56.26
2023-03-01T08:27:16.983Z,55.34
2023-03-01T08:30:19.566Z,53.88
2023-03-01T08:33:25.297Z,53.88
2023-03-01T08:36:30.686Z,53.17
2023-03-01T08:39:33.210Z,51.68
2023-03-01T08:42:35.745Z,51.25
2023-03-01T08:45:38.047Z,51.59
2023-03-01T08:48:43.955Z,51.01
2023-03-01T08:51:47.231Z,50.57
2023-03-01T08:54:50.065Z,51.47
2023-03-01T08:57:52.279Z,50.51
2023-03-01T09:00:54.868Z,49.98
2023-03-01T09:03:57.207Z,48.74
2023-03-01T09:07:00.300Z,48.48
2023-03-01T09:10:02.694Z,48.20
2023-03-01T09:13:05.159Z,48.47
2023-03-01T09:16:08.567Z,48.18
2023-03-01T09:19:12.537Z,47.88
2023-03-01T09:22:14.934Z,47.90
2023-03-01T09:25:17.445Z,48.28
2023-03-01T09:28:29.339Z,48.59
2023-03-01T09:31:32.731Z,47.06
2023-03-01T09:34:55.036Z,46.38
2023-03-01T09:37:57.642Z,46.12
2023-03-01T09:41:01.173Z,46.92
2023-03-01T09:44:09.202Z,46.50
2023-03-01T09:47:24.646Z,46.44
2023-03-01T09:50:32.651Z,48.40
2023-03-01T09:53:36.212Z,46.92
2023-03-01T09:56:45.299Z,44.95
2023-03-01T10:00:41.256Z,43.89
2023-03-01T10:03:51.837Z,43.02
2023-03-01T10:07:03.348Z,42.30
2023-03-01T10:10:08.512Z,44.85
2023-03-01T10:13:24.526Z,42.94
2023-03-01T10:16:39.201Z,42.38
2023-03-01T10:19:46.756Z,43.73
2023-03-01T10:22:53.619Z,40.97
2023-03-01T10:26:08.064Z,40.50
2023-03-01T10:29:13.101Z,43.37
2023-03-01T10:32:15.978Z,40.05
2023-03-01T10:35:30.924Z,39.04
2023-03-01T10:38:50.300Z,39.36
2023-03-01T10:41:54.837Z,39.56
2023-03-01T10:44:57.307Z,39.10
2023-03-01T10:48:09.039Z,38.41
2023-03-01T10:51:18.796Z,38.20
2023-03-01T10:54:33.596Z,37.95
2023-03-01T10:57:42.097Z,39.50
2023-03-01T11:01:04.582Z,37.22
2023-03-01T11:04:07.303Z,37.35
2023-03-01T11:07:10.355Z,36.45
2023-03-01T11:10:13.220Z,36.91
2023-03-01T11:13:20.616Z,35.71
2023-03-01T11:16:40.800Z,35.26
2023-03-01T11:19:48.781Z,34.18
2023-03-01T11:23:02.102Z,34.37
2023-03-01T11:26:11.599Z,33.87
2023-03-01T11:29:48.379Z,30.80
2023-03-01T11:33:07.090Z,28.66
2023-03-01T11:36:12.052Z,27.10
2023-03-01T11:39:39.691Z,26.80
2023-03-01T11:42:56.829Z,27.19
2023-03-01T11:46:14.463Z,28.02
2023-03-01T11:49:19.443Z,29.12
2023-03-01T11:52:33.722Z,30.79
2023-03-01T11:55:51.503Z,31.50
2023-03-01T11:59:22.046Z,33.30
2023-03-01T12:02:37.658Z,34.24
2023-03-01T12:06:06.261Z,35.50
2023-03-01T12:09:28.857Z,38.02
2023-03-01T12:13:02.240Z,37.39
2023-03-01T12:16:38.734Z,39.60
2023-03-01T12:19:56.979Z,41.64
2023-03-01T12:23:21.291Z,41.42
2023-03-01T12:26:35.446Z,39.89
2023-03-01T12:29:53.279Z,39.05
2023-03-01T12:33:19.497Z,38.36
2023-03-01T12:36:44.953Z,39.09
2023-03-01T12:40:13.729Z,38.74
2023-03-01T12:43:26.191Z,36.26
2023-03-01T12:46:31.853Z,36.37
2023-03-01T12:49:42.767Z,36.29
2023-03-01T12:52:48.067Z,39.14
2023-03-01T12:55:52.733Z,40.17
2023-03-01T12:59:18.020Z,42.03
2023-03-01T13:02:20.108Z,40.21
2023-03-01T13:05:40.977Z,40.04
2023-03-01T13:09:09.871Z,41.88
2023-03-01T13:12:43.848Z,41.64
2023-03-01T13:15:48.729Z,42.75
2023-03-01T13:19:07.758Z,41.85
2023-03-01T13:22:54.709Z,41.58
2023-03-01T13:26:12.707Z,40.41
2023-03-01T13:29:28.091Z,41.95
2023-03-01T13:32:44.461Z,39.45
2023-03-01T13:35:47.199Z,38.15
2023-03-01T13:38:59.950Z,35.28
2023-03-01T13:42:02.552Z,32.44
2023-03-01T13:45:45.654Z,31.61
2023-03-01T13:48:52.476Z,31.17
2023-03-01T13:51:55.057Z,31.23
2023-03-01T13:54:58.387Z,30.83
2023-03-01T13:58:05.226Z,31.55
2023-03-01T14:01:21.763Z,33.53
2023-03-01T14:04:36.862Z,32.43
2023-03-01T14:07:42.309Z,32.63
2023-03-01T14:11:08.504Z,33.20
2023-03-01T14:14:29.439Z,35.48
2023-03-01T14:17:43.550Z,35.61
2023-03-01T14:20:52.162Z,36.65
2023-03-01T14:23:54.896Z,36.06
2023-03-01T14:26:57.235Z,37.73
2023-03-01T14:30:03.469Z,37.93
2023-03-01T14:33:18.585Z,40.07
2023-03-01T14:36:28.131Z,40.84
2023-03-01T14:39:33.099Z,41.96
2023-03-01T14:42:37.624Z,42.23
2023-03-01T14:45:40.012Z,43.20
2023-03-01T14:48:42.607Z,43.72
2023-03-01T14:51:54.538Z,44.07
2023-03-01T14:54:59.049Z,43.92
2023-03-01T14:58:06.185Z,44.90
2023-03-01T15:01:15.396Z,45.23
2023-03-01T15:04:19.061Z,45.66
2023-03-01T15:07:22.225Z,45.84
2023-03-01T15:10:31.127Z,47.32
2023-03-01T15:13:35.905Z,46.45
2023-03-01T15:16:42.305Z,46.19
2023-03-01T15:19:47.276Z,47.40
2023-03-01T15:22:49.754Z,47.25
2023-03-01T15:26:00.240Z,48.01
2023-03-01T15:29:02.675Z,48.59
2023-03-01T15:32:27.156Z,49.09
2023-03-01T15:35:49.184Z,49.58
2023-03-01T15:38:57.749Z,50.08
2023-03-01T15:42:00.840Z,49.71
2023-03-01T15:45:24.350Z,50.43
2023-03-01T15:48:27.361Z,49.87
2023-03-01T15:51:36.218Z,50.71
2023-03-01T15:54:41.439Z,50.93
2023-03-01T15:57:43.959Z,50.39
2023-03-01T16:01:00.465Z,50.83
2023-03-01T16:04:04.116Z,51.05
2023-03-01T16:07:06.880Z,51.19
2023-03-01T16:10:10.243Z,51.75
2023-03-01T16:13:15.503Z,52.22
2023-03-01T16:16:18.169Z,51.97
2023-03-01T16:19:21.010Z,51.71
2023-03-01T16:22:26.088Z,52.14
2023-03-01T16:25:29.314Z,52.12
2023-03-01T16:28:31.776Z,52.39
2023-03-01T16:31:34.524Z,52.21
2023-03-01T16:34:37.451Z,52.65
2023-03-01T16:37:40.277Z,53.70
2023-03-01T16:40:49.411Z,54.26
2023-03-01T16:43:52.254Z,54.45
2023-03-01T16:46:54.901Z,54.94
2023-03-01T16:49:57.163Z,56.42
2023-03-01T16:52:59.610Z,56.29
2023-03-01T16:56:02.418Z,57.30
2023-03-01T16:59:06.354Z,57.98
2023-03-01T17:02:13.619Z,60.00
2023-03-01T17:05:16.259Z,60.93
2023-03-01T17:08:18.885Z,61.49
2023-03-01T17:11:22.442Z,60.23
2023-03-01T17:14:24.588Z,61.20
2023-03-01T17:17:27.932Z,61.59
2023-03-01T17:20:30.189Z,62.58
2023-03-01T17:23:34.215Z,62.79
2023-03-01T17:26:36.320Z,61.02
2023-03-01T17:29:39.994Z,60.46
2023-03-01T17:32:42.782Z,60.63
2023-03-01T17:35:47.333Z,59.43
2023-03-01T17:38:50.190Z,59.58
2023-03-01T17:41:53.091Z,61.13
2023-03-01T17:44:55.380Z,62.31
2023-03-01T17:47:57.979Z,61.51
2023-03-01T17:51:00.359Z,60.49
2023-03-01T17:54:03.532Z,59.29
2023-03-01T17:57:05.880Z,59.14
2023-03-01T18:00:13.355Z,60.33
2023-03-01T18:03:17.444Z,62.12
2023-03-01T18:06:28.008Z,63.05
2023-03-01T18:09:31.272Z,64.28
2023-03-01T18:12:33.495Z,63.59
2023-03-01T18:15:37.054Z,64.46
2023-03-01T18:18:39.929Z,64.17
2023-03-01T18:21:43.992Z,64.85
2023-03-01T18:24:46.252Z,65.46
2023-03-01T18:27:48.766Z,65.44
2023-03-01T18:31:19.102Z,64.93
2023-03-01T18:34:22.423Z,66.28
2023-03-01T18:37:24.982Z,65.79
2023-03-01T18:40:29.239Z,64.96
2023-03-01T18:43:32.794Z,63.87
2023-03-01T18:46:37.814Z,63.95
2023-03-01T18:49:40.376Z,63.41
2023-03-01T18:52:42.856Z,63.36
2023-03-01T18:55:45.025Z,62.66
2023-03-01T18:58:47.597Z,63.07
2023-03-01T19:01:49.860Z,64.74
2023-03-01T19:04:52.401Z,64.63
2023-03-01T19:07:55.074Z,65.47
2023-03-01T19:11:03.346Z,66.12
2023-03-01T19:14:05.561Z,65.41
2023-03-01T19:17:08.059Z,64.95
2023-03-01T19:20:11.400Z,65.25
2023-03-01T19:23:13.842Z,65.57
2023-03-01T19:26:19.085Z,66.05
2023-03-01T19:29:21.669Z,65.96
2023-03-01T19:32:24.021Z,66.52
2023-03-01T19:35:26.592Z,67.13
2023-03-01T19:38:29.977Z,66.53
2023-03-01T19:41:32.533Z,64.48
2023-03-01T19:44:34.772Z,64.59
2023-03-01T19:47:37.175Z,65.54
2023-03-01T19:50:39.425Z,64.85
2023-03-01T19:53:41.907Z,65.87
2023-03-01T19:56:44.050Z,66.48
2023-03-01T19:59:46.528Z,67.10
2023-03-01T20:02:49.213Z,67.79
2023-03-01T20:05:52.167Z,68.24
2023-03-01T20:08:54.377Z,69.62
2023-03-01T20:11:56.841Z,69.60
2023-03-01T20:14:59.014Z,70.96
2023-03-01T20:18:01.906Z,71.29
2023-03-01T20:21:09.315Z,72.46
2023-03-01T20:24:20.636Z,73.85
2023-03-01T20:27:22.773Z,73.15
2023-03-01T20:30:25.529Z,73.51
2023-03-01T20:33:27.702Z,74.07
2023-03-01T20:36:30.331Z,75.13
2023-03-01T20:39:32.495Z,75.46
2023-03-01T20:42:34.943Z,75.15
2023-03-01T20:45:38.051Z,76.72
2023-03-01T20:51:45.434Z,76.73
2023-03-01T20:54:48.588Z,77.27
2023-03-01T20:57:50.730Z,77.97
2023-03-01T21:00:53.186Z,77.82
2023-03-01T21:03:55.901Z,80.14
2023-03-01T21:06:58.379Z,81.71
2023-03-01T21:10:00.800Z,81.05
2023-03-01T21:13:03.292Z,81.60
2023-03-01T21:16:10.092Z,82.01
2023-03-01T21:19:13.099Z,82.08
2023-03-01T21:22:15.706Z,80.73
2023-03-01T21:25:18.106Z,81.04
2023-03-01T21:28:20.276Z,81.14
2023-03-01T21:31:34.903Z,81.52
2023-03-01T21:34:38.737Z,81.36
2023-03-01T21:37:41.135Z,81.86
2023-03-01T21:40:43.327Z,82.24
2023-03-01T21:43:47.840Z,83.46
2023-03-01T21:46:50.332Z,82.99
2023-03-01T21:49:52.790Z,82.09
2023-03-01T21:52:55.072Z,81.66
2023-03-01T21:55:57.744Z,81.64
2023-03-01T21:59:00.662Z,81.71
2023-03-01T22:02:03.282Z,81.69
2023-03-01T22:05:06.355Z,81.70
2023-03-01T22:08:08.972Z,82.62
2023-03-01T22:11:11.645Z,81.66
2023-03-01T22:14:15.231Z,81.75
2023-03-01T22:17:17.693Z,82.60
2023-03-01T22:20:20.085Z,83.11
2023-03-01T22:23:22.638Z,84.21
2023-03-01T22:26:26.211Z,84.37
2023-03-01T22:29:29.678Z,83.98
2023-03-01T22:32:31.957Z,85.21
2023-03-01T22:35:34.547Z,85.10
2023-03-01T22:38:36.848Z,84.33
2023-03-01T22:41:43.934Z,84.98
2023-03-01T22:44:46.175Z,83.00
2023-03-01T22:47:48.727Z,80.63
2023-03-01T22:50:51.973Z,82.14
2023-03-01T22:53:55.759Z,79.99
2023-03-01T22:56:58.009Z,81.09
2023-03-01T23:00:00.447Z,79.71
2023-03-01T23:03:02.781Z,79.53
2023-03-01T23:06:05.658Z,66.10
2023-03-01T23:09:07.816Z,65.28
2023-03-01T23:12:10.984Z,66.48
2023-03-01T23:15:13.297Z,66.78
2023-03-01T23:18:15.774Z,68.01
2023-03-01T23:21:19.024Z,68.21
2023-03-01T23:24:25.677Z,71.33
2023-03-01T23:27:30.649Z,73.38
2023-03-01T23:30:33.248Z,73.48
2023-03-01T23:33:38.469Z,71.79
2023-03-01T23:36:45.138Z,72.31
2023-03-01T23:39:47.445Z,73.18
2023-03-01T23:42:49.872Z,72.60
2023-03-01T23:45:54.949Z,73.27
2023-03-01T23:48:57.665Z,75.07
2023-03-01T23:52:01.460Z,71.20
2023-03-01T23:55:04.526Z,71.13
2023-03-01T23:58:06.870Z,71.80
